createdAt,value
2022-11-12T00:00:17.402Z,17.50
2022-11-12T00:03:38.610Z,19.80
2022-11-12T00:06:59.606Z,14.48
2022-11-12T00:10:21.538Z,21.20
2022-11-12T00:13:42.848Z,17.58
2022-11-12T00:17:04.536Z,14.48
2022-11-12T00:20:25.753Z,14.98
2022-11-12T00:23:46.577Z,15.85
2022-11-12T00:27:07.919Z,15.38
2022-11-12T00:30:30.689Z,15.43
2022-11-12T00:33:52.998Z,14.13
2022-11-12T00:37:14.041Z,19.48
2022-11-12T00:40:35.406Z,17.02
2022-11-12T00:43:56.469Z,16.65
2022-11-12T00:47:17.686Z,14.82
2022-11-12T00:50:38.933Z,14.52
2022-11-12T00:53:59.961Z,12.65
2022-11-12T00:57:22.677Z,12.98
2022-11-12T01:00:45.214Z,10.83
2022-11-12T01:04:06.094Z,14.30
2022-11-12T01:07:29.220Z,13.13
2022-11-12T01:10:50.651Z,12.52
2022-11-12T01:14:12.905Z,14.70
2022-11-12T01:17:35.035Z,13.25
2022-11-12T01:20:57.559Z,15.13
2022-11-12T01:24:21.152Z,14.52
2022-11-12T01:27:43.006Z,12.85
2022-11-12T01:31:26.667Z,15.60
2022-11-12T01:34:48.452Z,16.42
2022-11-12T01:38:09.937Z,13.52
2022-11-12T01:41:33.482Z,14.75
2022-11-12T01:44:54.626Z,15.68
2022-11-12T01:48:34.029Z,13.43
2022-11-12T01:52:00.393Z,15.75
2022-11-12T01:55:25.673Z,13.23
2022-11-12T01:58:48.003Z,16.25
2022-11-12T02:02:09.313Z,12.40
2022-11-12T02:05:31.114Z,14.25
2022-11-12T02:08:52.534Z,13.32
2022-11-12T02:12:33.471Z,13.68
2022-11-12T02:15:54.373Z,13.40
2022-11-12T02:19:16.506Z,13.13
2022-11-12T02:22:38.114Z,13.50
2022-11-12T02:26:02.542Z,12.65
2022-11-12T02:29:23.865Z,16.35
2022-11-12T02:32:45.155Z,13.13
2022-11-12T02:36:06.981Z,14.30
2022-11-12T02:39:28.134Z,11.93
2022-11-12T02:42:49.368Z,12.32
2022-11-12T02:46:12.123Z,13.02
2022-11-12T02:49:33.113Z,14.55
2022-11-12T02:52:54.266Z,14.60
2022-11-12T02:56:15.784Z,15.23
2022-11-12T02:59:37.541Z,13.70
2022-11-12T03:02:59.904Z,11.48
2022-11-12T03:06:21.016Z,11.38
2022-11-12T03:09:42.021Z,17.17
2022-11-12T03:13:02.979Z,12.45
2022-11-12T03:16:24.010Z,13.23
2022-11-12T03:19:45.586Z,12.35
2022-11-12T03:23:10.473Z,12.63
2022-11-12T03:26:35.727Z,14.13
2022-11-12T03:30:00.294Z,13.13
2022-11-12T03:33:22.334Z,15.10
2022-11-12T03:36:45.397Z,17.50
2022-11-12T03:40:07.635Z,11.35
2022-11-12T03:43:28.576Z,12.77
2022-11-12T03:46:49.796Z,14.52
2022-11-12T03:50:12.046Z,16.45
2022-11-12T03:53:33.024Z,11.57
2022-11-12T03:56:55.158Z,14.60
2022-11-12T04:00:17.385Z,13.30
2022-11-12T04:03:38.654Z,11.85
2022-11-12T04:07:19.018Z,12.70
2022-11-12T04:10:40.362Z,14.82
2022-11-12T04:14:01.712Z,12.80
2022-11-12T04:17:52.302Z,11.82
2022-11-12T04:21:34.268Z,13.30
2022-11-12T04:25:14.605Z,13.60
2022-11-12T04:28:36.154Z,15.93
2022-11-12T04:31:57.334Z,12.18
2022-11-12T04:35:20.052Z,12.68
2022-11-12T04:38:41.119Z,11.55
2022-11-12T04:42:20.909Z,12.23
2022-11-12T04:45:43.360Z,13.63
2022-11-12T04:49:05.732Z,12.35
2022-11-12T04:52:28.186Z,11.90
2022-11-12T04:55:53.527Z,12.90
2022-11-12T04:59:14.717Z,11.70
2022-11-12T05:02:36.164Z,14.00
2022-11-12T05:06:27.252Z,12.90
2022-11-12T05:09:48.492Z,12.85
2022-11-12T05:13:10.188Z,11.52
2022-11-12T05:16:30.889Z,10.70
2022-11-12T05:19:52.637Z,11.13
2022-11-12T05:23:14.274Z,9.90
2022-11-12T05:26:35.325Z,16.00
2022-11-12T05:29:58.223Z,9.70
2022-11-12T05:33:22.772Z,9.93
2022-11-12T05:36:44.451Z,12.75
2022-11-12T05:40:05.716Z,11.30
2022-11-12T05:43:26.989Z,13.25
2022-11-12T05:46:51.065Z,14.20
2022-11-12T05:50:13.182Z,9.93
2022-11-12T05:53:34.318Z,12.52
2022-11-12T05:56:55.439Z,11.50
2022-11-12T06:00:20.733Z,16.30
2022-11-12T06:03:45.871Z,29.75
2022-11-12T06:07:08.686Z,51.10
2022-11-12T06:10:29.950Z,15.38
2022-11-12T06:13:50.864Z,12.20
2022-11-12T06:17:12.765Z,13.43
2022-11-12T06:20:34.524Z,14.05
2022-11-12T06:23:58.632Z,10.68
2022-11-12T06:27:20.568Z,11.18
2022-11-12T06:30:41.748Z,10.90
2022-11-12T06:34:03.620Z,12.50
2022-11-12T06:37:24.585Z,11.60
2022-11-12T06:40:45.413Z,15.18
2022-11-12T06:44:09.039Z,14.40
2022-11-12T06:47:30.475Z,10.43
2022-11-12T06:50:52.944Z,11.85
2022-11-12T06:54:23.793Z,13.13
2022-11-12T06:57:45.297Z,16.65
2022-11-12T07:01:12.553Z,21.00
2022-11-12T07:04:34.525Z,22.15
2022-11-12T07:08:00.880Z,28.98
2022-11-12T07:11:22.693Z,14.55
2022-11-12T07:14:43.803Z,15.43
2022-11-12T07:18:05.243Z,14.82
2022-11-12T07:21:26.934Z,17.83
2022-11-12T07:24:47.924Z,20.55
2022-11-12T07:28:11.210Z,22.73
2022-11-12T07:31:32.225Z,15.30
2022-11-12T07:34:53.400Z,21.83
2022-11-12T07:38:15.501Z,16.80
2022-11-12T07:41:36.509Z,18.30
2022-11-12T07:44:58.117Z,17.40
2022-11-12T07:48:19.320Z,15.02
2022-11-12T07:51:40.746Z,15.75
2022-11-12T07:55:02.399Z,15.23
2022-11-12T07:58:25.165Z,16.98
2022-11-12T08:01:46.565Z,14.55
2022-11-12T08:05:14.478Z,14.32
2022-11-12T08:08:39.079Z,18.30
2022-11-12T08:12:00.735Z,15.23
2022-11-12T08:15:23.260Z,15.18
2022-11-12T08:18:46.137Z,15.52
2022-11-12T08:22:07.117Z,14.13
2022-11-12T08:25:28.644Z,14.05
2022-11-12T08:28:50.016Z,14.13
2022-11-12T08:32:11.519Z,15.32
2022-11-12T08:35:33.361Z,12.90
2022-11-12T08:38:54.790Z,12.40
2022-11-12T08:42:16.389Z,13.55
2022-11-12T08:45:42.525Z,12.73
2022-11-12T08:49:03.364Z,15.02
2022-11-12T08:52:24.874Z,12.30
2022-11-12T08:55:46.888Z,13.98
2022-11-12T08:59:08.551Z,17.23
2022-11-12T09:02:29.887Z,15.75
2022-11-12T09:05:52.111Z,13.05
2022-11-12T09:09:13.636Z,13.52
2022-11-12T09:12:36.704Z,14.75
2022-11-12T09:16:02.481Z,15.40
2022-11-12T09:19:23.883Z,15.23
2022-11-12T09:22:46.027Z,10.73
2022-11-12T09:26:08.406Z,14.13
2022-11-12T09:29:30.018Z,13.35
2022-11-12T09:32:51.564Z,12.70
2022-11-12T09:36:12.602Z,13.90
2022-11-12T09:39:34.033Z,15.68
2022-11-12T09:42:56.168Z,12.75
2022-11-12T09:46:29.553Z,11.85
2022-11-12T09:49:58.612Z,12.18
2022-11-12T09:53:21.637Z,18.63
2022-11-12T09:56:42.694Z,21.35
2022-11-12T10:00:04.352Z,15.25
2022-11-12T10:03:35.242Z,12.38
2022-11-12T10:07:14.285Z,17.35
2022-11-12T10:10:45.942Z,12.82
2022-11-12T10:14:38.416Z,12.43
2022-11-12T10:18:05.463Z,13.50
2022-11-12T10:21:45.437Z,10.32
2022-11-12T10:25:17.994Z,11.27
2022-11-12T10:29:10.370Z,10.18
2022-11-12T10:32:32.695Z,11.23
2022-11-12T10:35:54.598Z,10.93
2022-11-12T10:39:35.108Z,11.02
2022-11-12T10:43:05.554Z,10.95
2022-11-12T10:46:32.830Z,12.65
2022-11-12T10:50:06.400Z,11.00
2022-11-12T10:53:38.852Z,14.60
2022-11-12T10:57:20.594Z,10.57
2022-11-12T11:00:55.065Z,12.13
2022-11-12T11:04:36.228Z,7.18
2022-11-12T11:07:58.086Z,7.47
2022-11-12T11:11:28.647Z,10.30
2022-11-12T11:15:19.588Z,11.15
2022-11-12T11:18:42.967Z,10.52
2022-11-12T11:22:25.469Z,11.02
2022-11-12T11:25:48.854Z,8.10
2022-11-12T11:29:43.462Z,7.25
2022-11-12T11:33:22.234Z,11.07
2022-11-12T11:36:59.379Z,12.75
2022-11-12T11:40:26.411Z,11.75
2022-11-12T11:44:12.696Z,7.97
2022-11-12T11:48:00.622Z,9.82
2022-11-12T11:51:34.964Z,10.60
2022-11-12T11:55:34.489Z,10.80
2022-11-12T11:59:33.269Z,8.68
2022-11-12T12:03:19.892Z,12.32
2022-11-12T12:07:07.902Z,11.98
2022-11-12T12:11:08.320Z,12.77
2022-11-12T12:14:49.019Z,11.20
2022-11-12T12:18:29.078Z,10.23
2022-11-12T12:21:51.901Z,12.98
2022-11-12T12:25:29.276Z,12.32
2022-11-12T12:29:03.089Z,15.25
2022-11-12T12:32:36.609Z,15.25
2022-11-12T12:36:04.345Z,14.48
2022-11-12T12:39:28.051Z,10.13
2022-11-12T12:43:20.927Z,15.57
2022-11-12T12:46:54.707Z,10.82
2022-11-12T12:50:16.714Z,10.45
2022-11-12T12:53:38.011Z,11.07
2022-11-12T12:56:59.647Z,11.20
2022-11-12T13:00:40.581Z,12.30
2022-11-12T13:04:04.510Z,12.73
2022-11-12T13:07:48.691Z,18.42
2022-11-12T13:11:10.341Z,15.35
2022-11-12T13:14:36.900Z,22.83
2022-11-12T13:17:58.200Z,21.48
2022-11-12T13:21:21.410Z,19.75
2022-11-12T13:25:05.863Z,19.40
2022-11-12T13:28:27.489Z,12.57
2022-11-12T13:31:48.756Z,19.25
2022-11-12T13:35:12.974Z,17.30
2022-11-12T13:38:38.397Z,13.03
2022-11-12T13:42:18.820Z,15.18
2022-11-12T13:45:50.705Z,22.92
2022-11-12T13:49:15.101Z,12.65
2022-11-12T13:52:36.242Z,8.10
2022-11-12T13:55:57.554Z,17.83
2022-11-12T13:59:23.198Z,13.45
2022-11-12T14:02:46.676Z,17.65
2022-11-12T14:06:16.264Z,14.30
2022-11-12T14:10:08.304Z,16.00
2022-11-12T14:13:42.543Z,13.27
2022-11-12T14:17:22.395Z,14.60
2022-11-12T14:20:43.851Z,13.75
2022-11-12T14:24:05.830Z,15.88
2022-11-12T14:27:29.746Z,78.30
2022-11-12T14:30:51.145Z,50.10
2022-11-12T14:34:32.907Z,22.25
2022-11-12T14:38:15.210Z,23.27
2022-11-12T14:41:39.306Z,11.57
2022-11-12T14:45:00.216Z,21.30
2022-11-12T14:48:21.849Z,21.85
2022-11-12T14:51:48.666Z,27.02
2022-11-12T14:55:24.313Z,17.50
2022-11-12T14:58:46.205Z,12.77
2022-11-12T15:02:42.632Z,20.23
2022-11-12T15:06:09.273Z,21.52
2022-11-12T15:09:36.655Z,19.65
2022-11-12T15:13:13.757Z,54.47
2022-11-12T15:16:36.123Z,48.15
2022-11-12T15:20:21.597Z,38.92
2022-11-12T15:24:10.041Z,36.85
2022-11-12T15:27:41.231Z,34.47
2022-11-12T15:31:04.074Z,25.48
2022-11-12T15:34:25.097Z,47.97
2022-11-12T15:37:47.123Z,27.38
2022-11-12T15:41:22.061Z,28.00
2022-11-12T15:44:43.868Z,18.83
2022-11-12T15:48:04.977Z,23.25
2022-11-12T15:51:25.968Z,17.88
2022-11-12T15:54:47.338Z,25.77
2022-11-12T15:58:14.847Z,19.00
2022-11-12T16:01:37.726Z,27.95
2022-11-12T16:04:58.686Z,28.80
2022-11-12T16:08:21.102Z,22.80
2022-11-12T16:11:42.457Z,23.63
2022-11-12T16:15:04.479Z,25.98
2022-11-12T16:18:25.904Z,22.92
2022-11-12T16:21:47.067Z,26.05
2022-11-12T16:25:08.150Z,31.98
2022-11-12T16:28:31.432Z,32.90
2022-11-12T16:31:56.016Z,36.40
2022-11-12T16:35:23.156Z,36.85
2022-11-12T16:38:44.552Z,26.52
2022-11-12T16:42:05.680Z,28.30
2022-11-12T16:45:35.325Z,23.27
2022-11-12T16:48:56.863Z,23.98
2022-11-12T16:52:21.159Z,24.33
2022-11-12T16:55:42.240Z,24.38
2022-11-12T16:59:03.464Z,23.30
2022-11-12T17:02:24.526Z,22.52
2022-11-12T17:05:45.367Z,25.85
2022-11-12T17:09:08.441Z,23.70
2022-11-12T17:12:29.691Z,23.83
2022-11-12T17:15:58.476Z,27.08
2022-11-12T17:19:19.385Z,23.40
2022-11-12T17:22:42.239Z,22.70
2022-11-12T17:26:06.068Z,21.92
2022-11-12T17:29:27.607Z,28.80
2022-11-12T17:32:49.177Z,23.15
2022-11-12T17:36:12.906Z,19.90
2022-11-12T17:39:34.780Z,19.08
2022-11-12T17:42:56.180Z,24.52
2022-11-12T17:46:18.886Z,25.00
2022-11-12T17:49:41.227Z,26.73
2022-11-12T17:53:02.481Z,28.27
2022-11-12T17:56:25.439Z,28.20
2022-11-12T17:59:46.618Z,28.92
2022-11-12T18:03:07.611Z,23.73
2022-11-12T18:06:32.064Z,45.13
2022-11-12T18:09:53.581Z,41.25
2022-11-12T18:13:16.061Z,63.28
2022-11-12T18:16:37.910Z,64.20
2022-11-12T18:19:59.633Z,58.55
2022-11-12T18:23:20.976Z,54.95
2022-11-12T18:26:42.322Z,45.95
2022-11-12T18:30:04.458Z,38.85
2022-11-12T18:33:26.253Z,33.72
2022-11-12T18:36:50.703Z,26.55
2022-11-12T18:40:12.408Z,35.03
2022-11-12T18:43:33.991Z,36.90
2022-11-12T18:46:55.191Z,30.58
2022-11-12T18:50:16.640Z,40.17
2022-11-12T18:53:38.966Z,40.05
2022-11-12T18:56:59.945Z,42.55
2022-11-12T19:00:21.483Z,43.72
2022-11-12T19:03:42.984Z,51.20
2022-11-12T19:07:04.038Z,32.83
2022-11-12T19:10:25.125Z,36.50
2022-11-12T19:13:50.507Z,35.60
2022-11-12T19:17:11.697Z,41.83
2022-11-12T19:20:33.801Z,40.72
2022-11-12T19:23:56.507Z,41.72
2022-11-12T19:27:18.106Z,41.78
2022-11-12T19:30:40.014Z,49.13
2022-11-12T19:34:01.938Z,53.55
2022-11-12T19:37:33.538Z,42.42
2022-11-12T19:40:55.418Z,41.63
2022-11-12T19:44:16.881Z,44.80
2022-11-12T19:47:37.828Z,46.95
2022-11-12T19:51:06.847Z,44.42
2022-11-12T19:54:27.783Z,49.28
2022-11-12T19:57:48.965Z,48.88
2022-11-12T20:01:13.927Z,45.70
2022-11-12T20:04:35.894Z,49.92
2022-11-12T20:07:57.040Z,55.30
2022-11-12T20:11:19.335Z,45.63
2022-11-12T20:14:40.920Z,48.25
2022-11-12T20:18:03.361Z,47.42
2022-11-12T20:21:25.164Z,52.60
2022-11-12T20:24:46.994Z,45.60
2022-11-12T20:28:08.857Z,50.55
2022-11-12T20:31:32.064Z,55.45
2022-11-12T20:34:56.128Z,46.55
2022-11-12T20:38:17.448Z,50.10
2022-11-12T20:41:39.587Z,46.13
2022-11-12T20:45:01.681Z,45.95
2022-11-12T20:48:22.761Z,45.95
2022-11-12T20:51:43.965Z,40.55
2022-11-12T20:55:06.202Z,42.53
2022-11-12T20:58:29.987Z,44.53
2022-11-12T21:01:52.513Z,29.02
2022-11-12T21:05:14.969Z,44.95
2022-11-12T21:08:36.049Z,51.13
2022-11-12T21:11:58.362Z,41.60
2022-11-12T21:15:19.569Z,53.67
2022-11-12T21:18:41.434Z,39.05
2022-11-12T21:22:02.874Z,41.35
2022-11-12T21:25:24.265Z,41.22
2022-11-12T21:28:46.671Z,42.97
2022-11-12T21:32:08.078Z,43.63
2022-11-12T21:35:29.071Z,58.97
2022-11-12T21:39:01.028Z,49.60
2022-11-12T21:42:22.155Z,41.20
2022-11-12T21:45:47.492Z,43.50
2022-11-12T21:49:09.207Z,49.55
2022-11-12T21:52:33.723Z,51.00
2022-11-12T21:55:54.449Z,42.78
2022-11-12T21:59:17.103Z,46.05
2022-11-12T22:02:38.145Z,43.70
2022-11-12T22:06:00.529Z,46.10
2022-11-12T22:09:21.910Z,44.92
2022-11-12T22:12:58.676Z,47.60
2022-11-12T22:16:25.645Z,54.65
2022-11-12T22:19:46.890Z,50.40
2022-11-12T22:23:08.433Z,47.05
2022-11-12T22:26:33.758Z,50.03
2022-11-12T22:33:18.112Z,52.03
2022-11-12T22:36:40.402Z,45.30
2022-11-12T22:40:06.923Z,50.47
2022-11-12T22:43:33.299Z,55.00
2022-11-12T22:46:54.117Z,66.72
2022-11-12T22:50:16.198Z,54.78
2022-11-12T22:53:37.484Z,60.97
2022-11-12T22:56:58.704Z,73.32
2022-11-12T23:00:31.250Z,68.60
2022-11-12T23:03:56.807Z,62.17
2022-11-12T23:07:18.505Z,52.75
2022-11-12T23:10:45.481Z,70.55
2022-11-12T23:14:07.255Z,59.03
2022-11-12T23:17:28.899Z,64.05
2022-11-12T23:20:50.201Z,51.05
2022-11-12T23:24:12.109Z,59.40
2022-11-12T23:27:33.179Z,54.42
2022-11-12T23:30:54.349Z,54.83
2022-11-12T23:34:16.014Z,49.80
2022-11-12T23:37:37.092Z,56.53
2022-11-12T23:40:58.159Z,56.28
2022-11-12T23:44:19.853Z,54.58
2022-11-12T23:47:41.394Z,48.80
2022-11-12T23:51:13.933Z,41.22
2022-11-12T23:54:35.443Z,48.92
2022-11-12T23:57:57.305Z,50.60
